Pagina principale
METAR-TAF:

METAR-TAF

Aeroporti :

Aeroporto Internazionale di al-Arish

Al-Arish, Egitto

latitudine: 31-05N, longitudine: 033-49E, altezza: 31 m

METAR: mancante

Ora: 09:26 (07:26 UTC)

Previsione

Il bollettino è stato emesso 2 ore e 26 minuti fa, alle 05:00 UTC
Previsione valida dal 18 alle 06 UTC al 19 alle 12 UTC
Vento 10 kt da sud/sud-est
Visibilità 10 km o più
Nubi sparse ad un'altezza di 2000 ft
Evoluzione graduale
dal 18 alle 18 UTC al 18 alle 20 UTC
Vento 3 kt da direzioni variabili
Evoluzione graduale
dal 19 alle 06 UTC al 19 alle 08 UTC
Vento 8 kt da est/nord-est

TAF: HEAR 180500Z 1806/1912 16010KT 9999 SCT020 BECMG 1818/1820 VRB03KT BECMG 1906/1908 06008KT

Osservazioni e previsioni meteorologiche di più di 4000 aeroporti (messaggi METAR e TAF).

Le stazioni disponibili sono rappresentate dai dischi gialli e rossi sulla carta.

Puntare il mouse per vedere il nome della stazione.

Clicca sopra per visualizzare le osservazioni e previsioni meteorologiche.

Per cambiare la mappa : fare clic sui pulsanti verdi con una croce nera per ingrandire, il pulsante verde con un trattino per diminuire, o sulla freccia verde per le mappe adiacenti.


METAR-TAF: